sensor_id;sensor_type;location;lat;lon;timestamp;pressure;altitude;pressure_sealevel;temperature;humidity
61128;BME280;47013;42.664;23.242;2023-02-14T00:01:09;95406.25;;;1.62;72.12
61128;BME280;47013;42.664;23.242;2023-02-14T00:03:35;95421.66;;;1.57;71.95
61128;BME280;47013;42.664;23.242;2023-02-14T00:06:08;95421.03;;;1.60;72.07
61128;BME280;47013;42.664;23.242;2023-02-14T00:08:35;95415.19;;;1.49;72.46
61128;BME280;47013;42.664;23.242;2023-02-14T00:11:01;95416.59;;;1.46;72.57
61128;BME280;47013;42.664;23.242;2023-02-14T00:13:27;95427.16;;;1.60;72.37
61128;BME280;47013;42.664;23.242;2023-02-14T00:15:53;95423.09;;;1.71;72.22
61128;BME280;47013;42.664;23.242;2023-02-14T00:18:19;95438.03;;;1.64;72.88
61128;BME280;47013;42.664;23.242;2023-02-14T00:20:44;95424.81;;;1.59;72.42
61128;BME280;47013;42.664;23.242;2023-02-14T00:23:10;95427.97;;;1.61;73.04
61128;BME280;47013;42.664;23.242;2023-02-14T00:25:35;95430.16;;;1.59;73.75
61128;BME280;47013;42.664;23.242;2023-02-14T00:28:03;95412.84;;;1.56;73.52
61128;BME280;47013;42.664;23.242;2023-02-14T00:30:29;95426.06;;;1.61;73.18
61128;BME280;47013;42.664;23.242;2023-02-14T00:32:54;95433.16;;;1.57;73.61
61128;BME280;47013;42.664;23.242;2023-02-14T00:35:20;95428.13;;;1.64;73.54
61128;BME280;47013;42.664;23.242;2023-02-14T00:37:45;95426.84;;;1.62;73.77
61128;BME280;47013;42.664;23.242;2023-02-14T00:40:12;95419.75;;;1.48;74.40
61128;BME280;47013;42.664;23.242;2023-02-14T00:42:37;95424.19;;;1.62;74.17
61128;BME280;47013;42.664;23.242;2023-02-14T00:45:03;95428.59;;;1.66;73.76
61128;BME280;47013;42.664;23.242;2023-02-14T00:47:28;95425.00;;;1.71;73.27
61128;BME280;47013;42.664;23.242;2023-02-14T00:49:54;95418.69;;;1.67;73.04
61128;BME280;47013;42.664;23.242;2023-02-14T00:52:19;95428.44;;;1.71;72.98
61128;BME280;47013;42.664;23.242;2023-02-14T00:54:44;95417.13;;;1.74;73.39
61128;BME280;47013;42.664;23.242;2023-02-14T00:57:10;95405.66;;;1.83;72.60
61128;BME280;47013;42.664;23.242;2023-02-14T00:59:35;95409.56;;;1.76;73.26
61128;BME280;47013;42.664;23.242;2023-02-14T01:02:01;95412.41;;;1.80;72.59
61128;BME280;47013;42.664;23.242;2023-02-14T01:04:26;95406.44;;;1.83;72.32
61128;BME280;47013;42.664;23.242;2023-02-14T01:06:52;95397.63;;;1.91;71.96
61128;BME280;47013;42.664;23.242;2023-02-14T01:09:17;95403.59;;;1.88;72.12
61128;BME280;47013;42.664;23.242;2023-02-14T01:11:42;95402.19;;;1.91;71.64
61128;BME280;47013;42.664;23.242;2023-02-14T01:14:08;95397.78;;;1.86;72.29
61128;BME280;47013;42.664;23.242;2023-02-14T01:16:33;95387.53;;;1.80;72.54
61128;BME280;47013;42.664;23.242;2023-02-14T01:19:00;95394.47;;;1.81;72.47
61128;BME280;47013;42.664;23.242;2023-02-14T01:21:31;95386.63;;;1.84;72.55
61128;BME280;47013;42.664;23.242;2023-02-14T01:23:59;95389.13;;;1.89;72.55
61128;BME280;47013;42.664;23.242;2023-02-14T01:26:26;95386.47;;;1.89;71.73
61128;BME280;47013;42.664;23.242;2023-02-14T01:28:52;95381.28;;;1.84;71.75
61128;BME280;47013;42.664;23.242;2023-02-14T01:31:23;95373.72;;;1.86;72.08
61128;BME280;47013;42.664;23.242;2023-02-14T01:33:49;95381.28;;;1.84;72.39
61128;BME280;47013;42.664;23.242;2023-02-14T01:36:38;95377.47;;;1.94;71.67
61128;BME280;47013;42.664;23.242;2023-02-14T01:39:10;95381.41;;;1.62;72.53
61128;BME280;47013;42.664;23.242;2023-02-14T01:41:38;95370.56;;;1.58;73.27
61128;BME280;47013;42.664;23.242;2023-02-14T01:46:51;95351.84;;;1.58;73.04
61128;BME280;47013;42.664;23.242;2023-02-14T01:49:25;95356.56;;;1.61;73.28
61128;BME280;47013;42.664;23.242;2023-02-14T01:51:55;95350.72;;;1.68;72.53
61128;BME280;47013;42.664;23.242;2023-02-14T01:54:24;95346.81;;;1.74;72.30
61128;BME280;47013;42.664;23.242;2023-02-14T01:56:56;95339.75;;;1.69;73.16
61128;BME280;47013;42.664;23.242;2023-02-14T01:59:27;95336.75;;;1.71;72.31
61128;BME280;47013;42.664;23.242;2023-02-14T02:01:54;95343.81;;;1.75;72.45
61128;BME280;47013;42.664;23.242;2023-02-14T02:04:31;95357.50;;;1.74;72.41
61128;BME280;47013;42.664;23.242;2023-02-14T02:07:02;95351.22;;;1.78;71.68
61128;BME280;47013;42.664;23.242;2023-02-14T02:09:39;95352.63;;;1.76;72.40
61128;BME280;47013;42.664;23.242;2023-02-14T02:12:08;95339.41;;;1.88;71.39
61128;BME280;47013;42.664;23.242;2023-02-14T02:14:34;95342.72;;;1.94;71.75
61128;BME280;47013;42.664;23.242;2023-02-14T02:20:00;95348.53;;;1.61;72.01
61128;BME280;47013;42.664;23.242;2023-02-14T02:31:18;95336.75;;;1.71;72.26
61128;BME280;47013;42.664;23.242;2023-02-14T02:38:59;95311.88;;;1.79;71.64
61128;BME280;47013;42.664;23.242;2023-02-14T02:44:24;95297.75;;;1.70;71.99
61128;BME280;47013;42.664;23.242;2023-02-14T02:47:21;95303.56;;;1.72;71.73
61128;BME280;47013;42.664;23.242;2023-02-14T02:58:26;95316.28;;;1.66;71.88
61128;BME280;47013;42.664;23.242;2023-02-14T03:00:55;95317.25;;;1.62;72.44
61128;BME280;47013;42.664;23.242;2023-02-14T03:03:23;95303.72;;;1.50;72.29
61128;BME280;47013;42.664;23.242;2023-02-14T03:06:09;95314.25;;;1.63;71.99
61128;BME280;47013;42.664;23.242;2023-02-14T03:08:34;95313.63;;;1.66;71.91
61128;BME280;47013;42.664;23.242;2023-02-14T03:11:01;95315.22;;;1.59;72.37
61128;BME280;47013;42.664;23.242;2023-02-14T03:13:42;95318.97;;;1.66;71.92
61128;BME280;47013;42.664;23.242;2023-02-14T03:16:33;95310.34;;;1.69;71.27
61128;BME280;47013;42.664;23.242;2023-02-14T03:22:39;95304.69;;;1.71;71.21
61128;BME280;47013;42.664;23.242;2023-02-14T03:28:03;95284.22;;;1.58;71.88
61128;BME280;47013;42.664;23.242;2023-02-14T03:30:45;95286.41;;;1.56;71.54
61128;BME280;47013;42.664;23.242;2023-02-14T03:39:09;95280.63;;;1.45;72.12
61128;BME280;47013;42.664;23.242;2023-02-14T03:41:47;95280.59;;;1.36;72.68
61128;BME280;47013;42.664;23.242;2023-02-14T03:44:18;95292.09;;;1.45;72.39
61128;BME280;47013;42.664;23.242;2023-02-14T03:46:50;95289.09;;;1.38;72.20
61128;BME280;47013;42.664;23.242;2023-02-14T03:49:20;95284.38;;;1.53;72.18
61128;BME280;47013;42.664;23.242;2023-02-14T03:51:49;95282.34;;;1.58;71.44
61128;BME280;47013;42.664;23.242;2023-02-14T03:54:18;95279.34;;;1.60;71.74
61128;BME280;47013;42.664;23.242;2023-02-14T03:56:59;95273.22;;;1.59;71.86
61128;BME280;47013;42.664;23.242;2023-02-14T03:59:27;95269.44;;;1.34;72.20
61128;BME280;47013;42.664;23.242;2023-02-14T04:02:02;95266.78;;;1.34;72.60
61128;BME280;47013;42.664;23.242;2023-02-14T04:04:32;95257.81;;;1.39;71.64
61128;BME280;47013;42.664;23.242;2023-02-14T04:07:10;95249.66;;;1.35;72.43
61128;BME280;47013;42.664;23.242;2023-02-14T04:09:36;95252.31;;;1.44;71.83
61128;BME280;47013;42.664;23.242;2023-02-14T04:12:01;95251.38;;;1.40;71.86
61128;BME280;47013;42.664;23.242;2023-02-14T04:14:26;95256.56;;;1.45;72.24
61128;BME280;47013;42.664;23.242;2023-02-14T04:16:54;95253.41;;;1.43;71.93
61128;BME280;47013;42.664;23.242;2023-02-14T04:19:38;95256.88;;;1.43;71.40
61128;BME280;47013;42.664;23.242;2023-02-14T04:22:04;95258.91;;;1.46;71.41
61128;BME280;47013;42.664;23.242;2023-02-14T04:24:29;95248.22;;;1.29;71.68
61128;BME280;47013;42.664;23.242;2023-02-14T04:26:55;95261.56;;;1.29;72.47
61128;BME280;47013;42.664;23.242;2023-02-14T04:29:43;95255.44;;;1.37;71.93
61128;BME280;47013;42.664;23.242;2023-02-14T04:32:13;95253.88;;;1.36;71.63
61128;BME280;47013;42.664;23.242;2023-02-14T04:34:38;95258.75;;;1.34;71.61
61128;BME280;47013;42.664;23.242;2023-02-14T04:37:05;95257.50;;;1.40;70.80
61128;BME280;47013;42.664;23.242;2023-02-14T04:39:31;95250.56;;;1.39;71.53
61128;BME280;47013;42.664;23.242;2023-02-14T04:41:56;95252.78;;;1.46;71.01
61128;BME280;47013;42.664;23.242;2023-02-14T04:44:22;95252.00;;;1.45;71.52
61128;BME280;47013;42.664;23.242;2023-02-14T04:46:47;95232.66;;;1.40;71.19
61128;BME280;47013;42.664;23.242;2023-02-14T04:49:13;95229.84;;;1.45;71.11
61128;BME280;47013;42.664;23.242;2023-02-14T04:51:39;95222.91;;;1.35;71.43
61128;BME280;47013;42.664;23.242;2023-02-14T04:54:04;95214.25;;;1.30;71.46
61128;BME280;47013;42.664;23.242;2023-02-14T04:56:29;95220.25;;;1.35;71.23
61128;BME280;47013;42.664;23.242;2023-02-14T04:58:55;95224.16;;;1.38;70.70
61128;BME280;47013;42.664;23.242;2023-02-14T05:01:20;95229.19;;;1.39;71.07
61128;BME280;47013;42.664;23.242;2023-02-14T05:03:45;95219.63;;;1.38;71.34
61128;BME280;47013;42.664;23.242;2023-02-14T05:06:11;95225.13;;;1.33;70.76
61128;BME280;47013;42.664;23.242;2023-02-14T05:08:36;95230.16;;;1.35;71.12
61128;BME280;47013;42.664;23.242;2023-02-14T05:11:02;95225.13;;;1.33;70.77
61128;BME280;47013;42.664;23.242;2023-02-14T05:13:27;95234.41;;;1.36;70.43
61128;BME280;47013;42.664;23.242;2023-02-14T05:15:53;95232.84;;;1.43;70.18
61128;BME280;47013;42.664;23.242;2023-02-14T05:18:19;95227.78;;;1.42;70.02
61128;BME280;47013;42.664;23.242;2023-02-14T05:20:48;95232.84;;;1.43;70.29
61128;BME280;47013;42.664;23.242;2023-02-14T05:23:13;95230.78;;;1.49;70.61
61128;BME280;47013;42.664;23.242;2023-02-14T05:25:39;95237.06;;;1.53;70.25
61128;BME280;47013;42.664;23.242;2023-02-14T05:28:05;95236.91;;;1.58;70.12
61128;BME280;47013;42.664;23.242;2023-02-14T05:30:30;95223.03;;;1.56;70.37
61128;BME280;47013;42.664;23.242;2023-02-14T05:32:56;95229.22;;;1.57;70.16
61128;BME280;47013;42.664;23.242;2023-02-14T05:35:21;95233.44;;;1.58;70.25
61128;BME280;47013;42.664;23.242;2023-02-14T05:37:47;95231.69;;;1.62;69.90
61128;BME280;47013;42.664;23.242;2023-02-14T05:40:12;95224.47;;;1.62;70.15
61128;BME280;47013;42.664;23.242;2023-02-14T05:42:39;95226.69;;;1.60;69.74
61128;BME280;47013;42.664;23.242;2023-02-14T05:45:05;95228.25;;;1.53;70.18
61128;BME280;47013;42.664;23.242;2023-02-14T05:47:31;95223.84;;;1.57;70.38
61128;BME280;47013;42.664;23.242;2023-02-14T05:49:56;95221.97;;;1.48;70.88
61128;BME280;47013;42.664;23.242;2023-02-14T05:52:22;95221.66;;;1.50;70.55
61128;BME280;47013;42.664;23.242;2023-02-14T05:54:47;95222.75;;;1.49;70.64
61128;BME280;47013;42.664;23.242;2023-02-14T05:57:13;95217.56;;;1.53;71.17
61128;BME280;47013;42.664;23.242;2023-02-14T05:59:38;95228.38;;;1.73;81.87
61128;BME280;47013;42.664;23.242;2023-02-14T06:02:03;95216.28;;;1.67;70.85
61128;BME280;47013;42.664;23.242;2023-02-14T06:04:29;95219.09;;;1.80;70.62
61128;BME280;47013;42.664;23.242;2023-02-14T06:06:54;95216.22;;;1.93;69.76
61128;BME280;47013;42.664;23.242;2023-02-14T06:09:20;95224.41;;;1.97;70.13
61128;BME280;47013;42.664;23.242;2023-02-14T06:11:45;95224.72;;;1.95;69.14
61128;BME280;47013;42.664;23.242;2023-02-14T06:14:10;95232.44;;;1.88;69.64
61128;BME280;47013;42.664;23.242;2023-02-14T06:16:36;95231.34;;;1.89;69.69
61128;BME280;47013;42.664;23.242;2023-02-14T06:19:01;95233.69;;;1.91;70.24
61128;BME280;47013;42.664;23.242;2023-02-14T06:21:27;95221.94;;;1.83;69.87
61128;BME280;47013;42.664;23.242;2023-02-14T06:23:52;95234.00;;;1.89;69.71
61128;BME280;47013;42.664;23.242;2023-02-14T06:26:17;95239.50;;;1.93;69.81
61128;BME280;47013;42.664;23.242;2023-02-14T06:28:43;95220.16;;;2.34;72.99
61128;BME280;47013;42.664;23.242;2023-02-14T06:31:15;95240.13;;;2.45;69.37
61128;BME280;47013;42.664;23.242;2023-02-14T06:33:41;95243.78;;;2.32;69.03
61128;BME280;47013;42.664;23.242;2023-02-14T06:36:06;95244.78;;;2.19;70.35
61128;BME280;47013;42.664;23.242;2023-02-14T06:38:31;95237.41;;;2.16;70.26
61128;BME280;47013;42.664;23.242;2023-02-14T06:41:04;95234.75;;;2.07;70.09
61128;BME280;47013;42.664;23.242;2023-02-14T06:43:30;95232.72;;;2.04;70.72
61128;BME280;47013;42.664;23.242;2023-02-14T06:45:56;95239.47;;;2.10;70.65
61128;BME280;47013;42.664;23.242;2023-02-14T06:48:21;95231.59;;;2.05;70.33
61128;BME280;47013;42.664;23.242;2023-02-14T06:50:47;95230.47;;;2.15;69.98
61128;BME280;47013;42.664;23.242;2023-02-14T06:53:12;95226.56;;;2.12;70.88
61128;BME280;47013;42.664;23.242;2023-02-14T06:55:37;95227.03;;;2.14;71.17
61128;BME280;47013;42.664;23.242;2023-02-14T06:58:03;95223.09;;;2.12;71.16
61128;BME280;47013;42.664;23.242;2023-02-14T07:00:28;95228.13;;;2.22;71.19
61128;BME280;47013;42.664;23.242;2023-02-14T07:02:54;95216.13;;;2.19;70.96
61128;BME280;47013;42.664;23.242;2023-02-14T07:05:19;95215.53;;;2.22;71.93
61128;BME280;47013;42.664;23.242;2023-02-14T07:07:45;95221.59;;;2.31;70.86
61128;BME280;47013;42.664;23.242;2023-02-14T07:10:11;95208.09;;;2.28;71.36
61128;BME280;47013;42.664;23.242;2023-02-14T07:12:36;95209.53;;;2.25;71.81
61128;BME280;47013;42.664;23.242;2023-02-14T07:15:05;95202.59;;;2.24;71.87
61128;BME280;47013;42.664;23.242;2023-02-14T07:17:31;95218.47;;;2.29;71.66
61128;BME280;47013;42.664;23.242;2023-02-14T07:19:56;95212.78;;;2.31;71.94
61128;BME280;47013;42.664;23.242;2023-02-14T07:22:21;95215.63;;;2.34;71.73
61128;BME280;47013;42.664;23.242;2023-02-14T07:24:47;95227.59;;;2.37;72.41
61128;BME280;47013;42.664;23.242;2023-02-14T07:27:12;95211.13;;;2.47;72.01
61128;BME280;47013;42.664;23.242;2023-02-14T07:29:37;95217.47;;;2.43;72.17
61128;BME280;47013;42.664;23.242;2023-02-14T07:32:03;95216.31;;;2.52;72.64
61128;BME280;47013;42.664;23.242;2023-02-14T07:34:28;95220.38;;;2.29;73.56
61128;BME280;47013;42.664;23.242;2023-02-14T07:36:54;95216.88;;;2.37;73.21
61128;BME280;47013;42.664;23.242;2023-02-14T07:39:19;95216.09;;;2.36;72.78
61128;BME280;47013;42.664;23.242;2023-02-14T07:41:45;95221.91;;;2.39;73.50
61128;BME280;47013;42.664;23.242;2023-02-14T07:44:10;95214.34;;;2.41;73.10
61128;BME280;47013;42.664;23.242;2023-02-14T07:46:35;95222.22;;;2.37;73.45
61128;BME280;47013;42.664;23.242;2023-02-14T07:49:01;95225.22;;;2.35;73.46
61128;BME280;47013;42.664;23.242;2023-02-14T07:51:26;95224.28;;;2.31;73.78
61128;BME280;47013;42.664;23.242;2023-02-14T07:53:52;95228.19;;;2.43;73.89
61128;BME280;47013;42.664;23.242;2023-02-14T07:56:17;95226.13;;;2.48;73.24
61128;BME280;47013;42.664;23.242;2023-02-14T07:58:43;95231.56;;;2.90;81.90
61128;BME280;47013;42.664;23.242;2023-02-14T08:01:08;95232.94;;;2.96;73.63
61128;BME280;47013;42.664;23.242;2023-02-14T08:03:33;95236.72;;;2.95;72.69
61128;BME280;47013;42.664;23.242;2023-02-14T08:05:59;95239.31;;;2.83;73.17
61128;BME280;47013;42.664;23.242;2023-02-14T08:08:26;95237.09;;;2.85;72.56
61128;BME280;47013;42.664;23.242;2023-02-14T08:10:52;95244.22;;;2.81;72.90
61128;BME280;47013;42.664;23.242;2023-02-14T08:13:17;95237.16;;;2.76;73.33
61128;BME280;47013;42.664;23.242;2023-02-14T08:15:43;95246.75;;;2.77;73.37
61128;BME280;47013;42.664;23.242;2023-02-14T08:18:26;95247.81;;;2.85;74.29
61128;BME280;47013;42.664;23.242;2023-02-14T08:20:52;95247.22;;;2.79;73.94
61128;BME280;47013;42.664;23.242;2023-02-14T08:23:18;95251.34;;;2.77;73.69
61128;BME280;47013;42.664;23.242;2023-02-14T08:25:44;95242.56;;;2.67;74.50
61128;BME280;47013;42.664;23.242;2023-02-14T08:28:10;95258.91;;;2.75;74.35
61128;BME280;47013;42.664;23.242;2023-02-14T08:30:37;95264.56;;;2.73;75.46
61128;BME280;47013;42.664;23.242;2023-02-14T08:33:04;95258.28;;;2.69;75.38
61128;BME280;47013;42.664;23.242;2023-02-14T08:35:29;95256.41;;;2.70;75.98
61128;BME280;47013;42.664;23.242;2023-02-14T08:37:54;95253.72;;;2.70;76.24
61128;BME280;47013;42.664;23.242;2023-02-14T08:40:20;95247.09;;;2.76;76.11
61128;BME280;47013;42.664;23.242;2023-02-14T08:42:45;95243.22;;;2.85;76.21
61128;BME280;47013;42.664;23.242;2023-02-14T08:45:11;95245.28;;;2.88;75.53
61128;BME280;47013;42.664;23.242;2023-02-14T08:47:36;95257.91;;;2.88;75.39
61128;BME280;47013;42.664;23.242;2023-02-14T08:50:08;95259.50;;;2.80;76.24
61128;BME280;47013;42.664;23.242;2023-02-14T08:52:33;95256.53;;;2.73;76.55
61128;BME280;47013;42.664;23.242;2023-02-14T08:54:59;95261.63;;;2.66;77.54
61128;BME280;47013;42.664;23.242;2023-02-14T08:57:24;95261.75;;;2.70;77.39
61128;BME280;47013;42.664;23.242;2023-02-14T08:59:51;95260.84;;;2.65;77.49
61128;BME280;47013;42.664;23.242;2023-02-14T09:02:17;95258.75;;;2.71;78.01
61128;BME280;47013;42.664;23.242;2023-02-14T09:04:42;95260.97;;;2.69;78.06
61128;BME280;47013;42.664;23.242;2023-02-14T09:07:07;95263.06;;;2.63;78.61
61128;BME280;47013;42.664;23.242;2023-02-14T09:09:33;95258.63;;;2.67;78.56
61128;BME280;47013;42.664;23.242;2023-02-14T09:12:03;95251.56;;;2.63;78.88
61128;BME280;47013;42.664;23.242;2023-02-14T09:14:28;95253.63;;;2.57;79.00
61128;BME280;47013;42.664;23.242;2023-02-14T09:16:54;95252.34;;;2.63;79.38
61128;BME280;47013;42.664;23.242;2023-02-14T09:19:19;95245.09;;;2.64;79.03
61128;BME280;47013;42.664;23.242;2023-02-14T09:21:45;95248.72;;;2.59;79.28
61128;BME280;47013;42.664;23.242;2023-02-14T09:24:10;95233.03;;;2.49;78.81
61128;BME280;47013;42.664;23.242;2023-02-14T09:26:36;95237.09;;;2.55;78.78
61128;BME280;47013;42.664;23.242;2023-02-14T09:29:04;95236.44;;;2.58;78.74
61128;BME280;47013;42.664;23.242;2023-02-14T09:31:30;95240.09;;;2.54;78.14
61128;BME280;47013;42.664;23.242;2023-02-14T09:33:55;95243.78;;;2.41;78.50
61128;BME280;47013;42.664;23.242;2023-02-14T09:36:39;95239.50;;;2.48;78.38
61128;BME280;47013;42.664;23.242;2023-02-14T09:39:23;95229.78;;;2.35;78.48
61128;BME280;47013;42.664;23.242;2023-02-14T09:42:11;95237.81;;;2.35;77.75
61128;BME280;47013;42.664;23.242;2023-02-14T09:44:52;95231.81;;;2.38;77.66
61128;BME280;47013;42.664;23.242;2023-02-14T09:50:03;95230.28;;;2.28;77.35
61128;BME280;47013;42.664;23.242;2023-02-14T09:52:30;95230.59;;;2.35;78.19
61128;BME280;47013;42.664;23.242;2023-02-14T09:55:01;95236.53;;;2.41;77.84
61128;BME280;47013;42.664;23.242;2023-02-14T09:57:44;95221.59;;;2.31;77.13
61128;BME280;47013;42.664;23.242;2023-02-14T10:00:21;95232.31;;;2.31;77.74
61128;BME280;47013;42.664;23.242;2023-02-14T10:08:57;95218.91;;;2.40;77.16
61128;BME280;47013;42.664;23.242;2023-02-14T10:11:26;95217.34;;;2.39;75.87
61128;BME280;47013;42.664;23.242;2023-02-14T10:13:57;95213.53;;;2.40;76.43
61128;BME280;47013;42.664;23.242;2023-02-14T10:16:35;95204.69;;;2.48;75.91
61128;BME280;47013;42.664;23.242;2023-02-14T10:19:18;95210.34;;;2.47;75.40
61128;BME280;47013;42.664;23.242;2023-02-14T10:21:53;95202.06;;;2.40;75.22
61128;BME280;47013;42.664;23.242;2023-02-14T10:27:03;95206.94;;;2.38;75.75
61128;BME280;47013;42.664;23.242;2023-02-14T10:29:32;95207.09;;;2.41;75.61
61128;BME280;47013;42.664;23.242;2023-02-14T10:32:00;95195.41;;;2.46;75.68
61128;BME280;47013;42.664;23.242;2023-02-14T10:34:46;95210.06;;;2.48;74.65
61128;BME280;47013;42.664;23.242;2023-02-14T10:50:26;95212.41;;;2.50;73.71
61128;BME280;47013;42.664;23.242;2023-02-14T10:53:19;95214.47;;;2.44;74.49
61128;BME280;47013;42.664;23.242;2023-02-14T10:55:57;95212.44;;;2.41;74.14
61128;BME280;47013;42.664;23.242;2023-02-14T10:58:28;95200.03;;;2.36;74.34
61128;BME280;47013;42.664;23.242;2023-02-14T11:01:02;95192.59;;;2.42;73.84
61128;BME280;47013;42.664;23.242;2023-02-14T11:03:31;95191.38;;;2.31;74.07
61128;BME280;47013;42.664;23.242;2023-02-14T11:05:57;95193.78;;;2.24;74.22
61128;BME280;47013;42.664;23.242;2023-02-14T11:08:35;95188.75;;;2.22;74.38
61128;BME280;47013;42.664;23.242;2023-02-14T11:11:09;95197.63;;;2.44;77.40
61128;BME280;47013;42.664;23.242;2023-02-14T11:13:38;95195.91;;;2.39;77.09
61128;BME280;47013;42.664;23.242;2023-02-14T11:16:28;95193.16;;;2.56;79.73
61128;BME280;47013;42.664;23.242;2023-02-14T11:19:26;95174.59;;;2.51;75.13
61128;BME280;47013;42.664;23.242;2023-02-14T11:21:54;95195.28;;;2.42;74.23
61128;BME280;47013;42.664;23.242;2023-02-14T11:27:16;95193.72;;;2.32;75.42
61128;BME280;47013;42.664;23.242;2023-02-14T11:29:45;95185.25;;;2.30;75.21
61128;BME280;47013;42.664;23.242;2023-02-14T11:32:24;95181.00;;;2.29;75.08
61128;BME280;47013;42.664;23.242;2023-02-14T11:35:04;95178.75;;;2.40;78.75
61128;BME280;47013;42.664;23.242;2023-02-14T11:37:33;95158.31;;;2.35;73.45
61128;BME280;47013;42.664;23.242;2023-02-14T11:40:02;95172.66;;;2.31;73.96
61128;BME280;47013;42.664;23.242;2023-02-14T11:42:42;95173.59;;;2.35;73.59
61128;BME280;47013;42.664;23.242;2023-02-14T11:45:34;95169.31;;;2.34;73.01
61128;BME280;47013;42.664;23.242;2023-02-14T11:48:20;95164.16;;;2.29;72.87
61128;BME280;47013;42.664;23.242;2023-02-14T11:53:24;95147.00;;;2.30;73.37
61128;BME280;47013;42.664;23.242;2023-02-14T11:59:09;95148.41;;;2.36;72.47
61128;BME280;47013;42.664;23.242;2023-02-14T12:01:36;95150.56;;;2.43;71.53
61128;BME280;47013;42.664;23.242;2023-02-14T12:04:19;95148.97;;;2.42;71.03
61128;BME280;47013;42.664;23.242;2023-02-14T12:06:46;95146.44;;;2.45;71.15
61128;BME280;47013;42.664;23.242;2023-02-14T12:14:23;95134.84;;;2.62;70.19
61128;BME280;47013;42.664;23.242;2023-02-14T12:17:28;95131.53;;;2.65;70.07
61128;BME280;47013;42.664;23.242;2023-02-14T12:20:11;95138.66;;;2.61;71.07
61128;BME280;47013;42.664;23.242;2023-02-14T12:22:45;95144.06;;;2.73;70.81
61128;BME280;47013;42.664;23.242;2023-02-14T12:25:19;95125.97;;;2.70;70.14
61128;BME280;47013;42.664;23.242;2023-02-14T12:27:56;95122.97;;;2.72;70.38
61128;BME280;47013;42.664;23.242;2023-02-14T12:30:27;95114.75;;;2.77;71.01
61128;BME280;47013;42.664;23.242;2023-02-14T12:32:55;95114.47;;;2.70;70.24
61128;BME280;47013;42.664;23.242;2023-02-14T12:35:43;95122.00;;;2.76;70.05
61128;BME280;47013;42.664;23.242;2023-02-14T12:57:56;95104.53;;;2.70;71.94
61128;BME280;47013;42.664;23.242;2023-02-14T13:08:46;95111.03;;;2.90;74.14
61128;BME280;47013;42.664;23.242;2023-02-14T13:19:41;95100.75;;;2.92;72.48
61128;BME280;47013;42.664;23.242;2023-02-14T13:22:13;95097.63;;;2.90;72.35
61128;BME280;47013;42.664;23.242;2023-02-14T13:24:49;95103.31;;;2.88;72.53
61128;BME280;47013;42.664;23.242;2023-02-14T13:27:22;95098.81;;;2.80;72.78
61128;BME280;47013;42.664;23.242;2023-02-14T13:29:56;95093.91;;;2.82;73.39
61128;BME280;47013;42.664;23.242;2023-02-14T13:32:27;95099.69;;;2.84;73.18
61128;BME280;47013;42.664;23.242;2023-02-14T13:34:55;95087.75;;;2.82;73.42
61128;BME280;47013;42.664;23.242;2023-02-14T13:37:23;95093.31;;;2.77;74.09
61128;BME280;47013;42.664;23.242;2023-02-14T13:40:02;95091.59;;;2.93;73.67
61128;BME280;47013;42.664;23.242;2023-02-14T13:50:47;95088.28;;;2.75;74.16
61128;BME280;47013;42.664;23.242;2023-02-14T13:55:53;95091.81;;;2.88;73.27
61128;BME280;47013;42.664;23.242;2023-02-14T13:58:20;95085.59;;;2.96;73.73
61128;BME280;47013;42.664;23.242;2023-02-14T14:00:50;95103.66;;;2.87;72.74
61128;BME280;47013;42.664;23.242;2023-02-14T14:06:02;95103.16;;;2.85;73.32
61128;BME280;47013;42.664;23.242;2023-02-14T14:18:51;95093.44;;;2.80;73.27
61128;BME280;47013;42.664;23.242;2023-02-14T14:21:29;95099.97;;;2.71;73.58
61128;BME280;47013;42.664;23.242;2023-02-14T14:26:57;95095.31;;;2.59;74.35
61128;BME280;47013;42.664;23.242;2023-02-14T14:29:35;95093.91;;;2.61;73.95
61128;BME280;47013;42.664;23.242;2023-02-14T14:32:24;95093.38;;;2.68;74.13
61128;BME280;47013;42.664;23.242;2023-02-14T14:34:56;95091.47;;;2.69;74.13
61128;BME280;47013;42.664;23.242;2023-02-14T14:37:27;95089.72;;;2.73;74.00
61128;BME280;47013;42.664;23.242;2023-02-14T14:39:56;95079.78;;;2.73;73.72
61128;BME280;47013;42.664;23.242;2023-02-14T14:42:22;95073.34;;;2.74;74.30
61128;BME280;47013;42.664;23.242;2023-02-14T14:44:59;95061.69;;;2.70;73.71
61128;BME280;47013;42.664;23.242;2023-02-14T14:47:30;95070.38;;;2.67;74.46
61128;BME280;47013;42.664;23.242;2023-02-14T14:50:05;95075.41;;;2.69;74.54
61128;BME280;47013;42.664;23.242;2023-02-14T14:52:32;95073.19;;;2.71;74.17
61128;BME280;47013;42.664;23.242;2023-02-14T14:54:59;95075.53;;;2.72;73.92
61128;BME280;47013;42.664;23.242;2023-02-14T14:57:26;95076.31;;;2.73;74.15
61128;BME280;47013;42.664;23.242;2023-02-14T15:03:12;95080.91;;;2.72;74.02
61128;BME280;47013;42.664;23.242;2023-02-14T15:05:41;95076.41;;;2.64;74.46
61128;BME280;47013;42.664;23.242;2023-02-14T15:10:52;95079.75;;;2.61;74.41
61128;BME280;47013;42.664;23.242;2023-02-14T15:13:29;95075.63;;;2.63;74.48
61128;BME280;47013;42.664;23.242;2023-02-14T15:16:40;95080.31;;;2.66;74.56
61128;BME280;47013;42.664;23.242;2023-02-14T15:19:20;95088.47;;;2.70;74.04
61128;BME280;47013;42.664;23.242;2023-02-14T15:21:47;95091.47;;;2.69;74.04
61128;BME280;47013;42.664;23.242;2023-02-14T15:24:15;95096.88;;;2.60;74.11
61128;BME280;47013;42.664;23.242;2023-02-14T15:26:43;95087.28;;;2.59;74.11
61128;BME280;47013;42.664;23.242;2023-02-14T15:29:38;95095.59;;;2.66;74.26
61128;BME280;47013;42.664;23.242;2023-02-14T15:32:04;95092.19;;;2.57;74.50
61128;BME280;47013;42.664;23.242;2023-02-14T15:34:32;95092.66;;;2.59;74.63
61128;BME280;47013;42.664;23.242;2023-02-14T15:37:00;95091.81;;;2.67;74.11
61128;BME280;47013;42.664;23.242;2023-02-14T15:39:39;95094.75;;;2.74;74.20
61128;BME280;47013;42.664;23.242;2023-02-14T15:42:19;95082.00;;;2.71;73.59
61128;BME280;47013;42.664;23.242;2023-02-14T15:44:47;95088.84;;;2.60;74.44